Time;durP1;ratioP1;P1;durP2;ratioP2;P2;SDS_P1;SDS_P2;PMS_P1;PMS_P2;Temp;Humidity;BMP_temperature;BMP_pressure;BME280_temperature;BME280_humidity;BME280_pressure;Samples;Min_cycle;Max_cycle;Signal;HPM_P1;HPM_P2
2022/02/18 00:09:05;;;;;;;0.43;0.10;;;2.70;99.90;;;;;;21077788;28;20077;-47
2022/02/18 00:19:08;;;;;;;0.30;0.17;;;2.90;99.90;;;;;;21077339;28;20539;-48
2022/02/18 00:29:11;;;;;;;0.38;0.13;;;3.20;99.30;;;;;;21076387;28;20101;-47
2022/02/18 00:39:14;;;;;;;0.63;0.10;;;3.70;97.80;;;;;;21075353;28;20453;-47
2022/02/18 00:49:21;;;;;;;0.55;0.10;;;4.20;95.80;;;;;;21075269;28;20042;-48
2022/02/18 00:59:23;;;;;;;0.20;0.10;;;4.10;94.80;;;;;;21056953;28;20384;-47
2022/02/18 01:09:26;;;;;;;0.35;0.10;;;4.10;95.70;;;;;;21056052;28;20040;-46
2022/02/18 01:19:28;;;;;;;0.25;0.10;;;4.10;94.40;;;;;;21071837;28;20429;-47
2022/02/18 01:29:41;;;;;;;0.73;0.00;;;4.10;94.40;;;;;;21072014;28;20537;-49
2022/02/18 01:39:44;;;;;;;0.20;0.08;;;3.80;95.20;;;;;;21070397;28;20032;-48
2022/02/18 01:49:49;;;;;;;0.30;0.00;;;3.50;96.30;;;;;;21069514;28;20040;-47
2022/02/18 01:59:52;;;;;;;0.10;0.00;;;4.10;82.90;;;;;;21053285;28;20062;-48
2022/02/18 02:09:54;;;;;;;0.40;0.10;;;7.20;82.20;;;;;;21050993;28;20040;-47
2022/02/18 02:19:57;;;;;;;0.40;0.10;;;5.70;87.60;;;;;;21067614;28;20028;-47
2022/02/18 02:30:00;;;;;;;0.28;0.10;;;4.40;88.30;;;;;;21067054;28;20467;-46
2022/02/18 02:40:04;;;;;;;0.43;0.10;;;3.90;91.70;;;;;;21066800;28;20044;-47
2022/02/18 02:50:17;;;;;;;0.30;0.13;;;5.30;80.20;;;;;;21066540;28;20043;-47
2022/02/18 03:00:19;;;;;;;0.60;0.20;;;7.90;70.50;;;;;;21049162;28;20036;-48
2022/02/18 03:10:23;;;;;;;0.05;0.00;;;8.60;65.50;;;;;;21049765;28;20081;-48
2022/02/18 03:20:29;;;;;;;0.93;0.10;;;8.30;62.50;;;;;;21065167;28;20097;-48
2022/02/18 03:30:33;;;;;;;0.20;0.10;;;7.70;70.30;;;;;;21080715;28;20032;-47
2022/02/18 03:40:37;;;;;;;0.00;0.00;;;5.90;75.50;;;;;;21079894;28;20036;-47
2022/02/18 03:50:43;;;;;;;0.10;0.00;;;4.90;81.20;;;;;;21079359;28;20426;-47
2022/02/18 04:00:46;;;;;;;0.40;0.10;;;4.40;87.10;;;;;;21078650;28;20036;-47
2022/02/18 04:10:49;;;;;;;0.20;0.10;;;4.10;90.60;;;;;;21078040;28;20028;-47
2022/02/18 04:20:56;;;;;;;0.30;0.05;;;3.70;91.20;;;;;;21076757;28;20089;-47
2022/02/18 04:31:29;;;;;;;0.20;0.00;;;3.70;91.10;;;;;;21060573;28;20067;-47
2022/02/18 04:41:33;;;;;;;0.40;0.10;;;3.40;93.00;;;;;;21074197;28;20093;-49
2022/02/18 04:51:39;;;;;;;1.98;0.13;;;3.00;94.30;;;;;;21075449;28;20044;-47
2022/02/18 05:01:42;;;;;;;0.60;0.10;;;3.10;91.90;;;;;;21073598;28;20043;-47
2022/02/18 05:11:44;;;;;;;0.65;0.00;;;3.70;86.60;;;;;;21073037;28;20032;-47
2022/02/18 05:21:47;;;;;;;0.00;0.00;;;4.10;90.40;;;;;;21054127;28;20449;-46
2022/02/18 05:31:50;;;;;;;0.10;0.00;;;5.10;82.00;;;;;;21071203;28;20031;-47
2022/02/18 05:41:53;;;;;;;0.35;0.00;;;4.80;90.20;;;;;;21070431;28;20082;-47
2022/02/18 05:51:56;;;;;;;0.15;0.00;;;3.70;91.90;;;;;;21069442;28;20113;-48
2022/02/18 06:01:58;;;;;;;0.30;0.00;;;3.50;91.30;;;;;;21069817;28;20097;-47
2022/02/18 06:12:01;;;;;;;0.30;0.10;;;3.60;91.10;;;;;;21057216;28;20044;-48
2022/02/18 06:22:03;;;;;;;0.73;0.10;;;3.70;88.30;;;;;;21067139;28;20069;-47
2022/02/18 06:32:11;;;;;;;0.13;0.00;;;3.80;89.80;;;;;;21067220;28;20153;-48
2022/02/18 06:42:14;;;;;;;0.30;0.10;;;3.60;90.80;;;;;;21033837;28;20105;-48
2022/02/18 06:52:16;;;;;;;0.57;0.10;;;3.40;92.40;;;;;;21066550;28;20044;-47
2022/02/18 07:02:19;;;;;;;0.10;0.00;;;3.40;94.20;;;;;;21077261;28;20052;-47
2022/02/18 07:12:25;;;;;;;0.20;0.10;;;3.20;94.40;;;;;;21081323;28;20036;-47
2022/02/18 07:22:28;;;;;;;0.40;0.10;;;3.10;93.90;;;;;;21071381;28;20040;-47
2022/02/18 07:32:30;;;;;;;0.50;0.10;;;3.40;93.00;;;;;;21081299;28;20495;-46
2022/02/18 07:42:33;;;;;;;0.20;0.10;;;4.20;91.50;;;;;;21080370;28;20032;-47
2022/02/18 07:52:37;;;;;;;0.17;0.10;;;4.90;92.00;;;;;;21080155;28;20105;-46
2022/02/18 08:02:41;;;;;;;0.38;0.20;;;5.50;91.10;;;;;;21079301;28;20040;-46
2022/02/18 08:12:46;;;;;;;0.77;0.20;;;6.00;90.50;;;;;;21061392;28;20028;-47
2022/02/18 08:22:48;;;;;;;1.70;0.30;;;6.30;90.90;;;;;;21076895;28;20036;-46
2022/02/18 08:32:50;;;;;;;1.35;0.60;;;7.10;90.30;;;;;;21076268;28;20039;-47
2022/02/18 08:42:53;;;;;;;2.10;0.65;;;8.10;90.70;;;;;;21075749;28;20040;-47
2022/02/18 08:52:56;;;;;;;3.42;1.50;;;8.10;90.70;;;;;;21074622;28;20067;-49
2022/02/18 09:02:58;;;;;;;2.15;1.20;;;8.30;90.80;;;;;;21059414;28;20495;-48
2022/02/18 09:13:01;;;;;;;3.72;1.48;;;8.10;92.10;;;;;;21074697;28;20097;-48
2022/02/18 09:23:03;;;;;;;3.15;0.98;;;8.60;91.40;;;;;;21071787;28;20506;-48
2022/02/18 09:33:06;;;;;;;4.00;1.90;;;9.20;89.90;;;;;;21072308;28;20398;-49
2022/02/18 09:43:09;;;;;;;4.85;2.22;;;10.30;85.90;;;;;;21070880;28;20039;-48
2022/02/18 09:53:12;;;;;;;9.35;5.38;;;11.20;82.80;;;;;;21070251;28;20052;-48
2022/02/18 10:03:15;;;;;;;6.72;3.28;;;11.40;90.00;;;;;;21069284;28;20044;-47
2022/02/18 10:13:34;;;;;;;13.15;7.45;;;11.50;83.10;;;;;;21068795;28;20471;-49
2022/02/18 10:23:37;;;;;;;16.10;9.68;;;12.10;88.70;;;;;;21067918;28;20039;-48
2022/02/18 10:33:39;;;;;;;21.52;12.98;;;11.90;89.30;;;;;;21066020;28;20131;-52
2022/02/18 10:43:46;;;;;;;23.02;14.75;;;12.10;90.50;;;;;;21066527;28;20385;-48
2022/02/18 10:53:50;;;;;;;28.67;16.60;;;12.10;92.00;;;;;;21066213;28;20052;-49
2022/02/18 11:04:01;;;;;;;28.70;16.20;;;12.20;92.20;;;;;;21065669;28;20560;-50
2022/02/18 11:14:08;;;;;;;30.50;18.48;;;12.30;92.10;;;;;;21049117;28;20036;-48
2022/02/18 11:24:16;;;;;;;29.48;17.70;;;12.50;92.50;;;;;;21066645;28;20097;-48
2022/02/18 11:34:18;;;;;;;32.78;18.15;;;12.30;93.00;;;;;;21064866;28;20040;-48
2022/02/18 11:44:33;;;;;;;34.00;20.25;;;12.70;92.50;;;;;;21068330;28;20035;-48
2022/02/18 11:54:37;;;;;;;31.63;19.30;;;12.90;92.50;;;;;;21079372;28;20044;-47
2022/02/18 12:04:41;;;;;;;46.47;29.73;;;12.90;92.80;;;;;;21078725;28;20442;-47
2022/02/18 12:14:48;;;;;;;44.90;28.23;;;13.00;93.00;;;;;;21078059;28;20085;-47
2022/02/18 12:24:54;;;;;;;43.55;23.10;;;12.60;93.50;;;;;;21077101;28;20036;-50
2022/02/18 12:35:06;;;;;;;46.13;27.48;;;11.10;95.50;;;;;;21076569;28;20032;-48
2022/02/18 12:45:11;;;;;;;42.97;23.45;;;11.10;96.10;;;;;;21075149;28;20061;-48
2022/02/18 12:55:22;;;;;;;34.45;19.35;;;11.20;95.50;;;;;;21074263;28;20160;-51
2022/02/18 13:05:30;;;;;;;29.93;16.73;;;11.80;93.70;;;;;;21073888;28;20044;-48
2022/02/18 13:15:34;;;;;;;27.80;16.33;;;12.20;92.70;;;;;;21073205;28;20032;-47
2022/02/18 13:25:45;;;;;;;27.38;16.90;;;12.30;92.40;;;;;;21072827;28;20044;-48
2022/02/18 13:35:51;;;;;;;29.33;17.08;;;12.30;92.70;;;;;;21071687;28;20055;-50
2022/02/18 13:45:53;;;;;;;35.15;20.05;;;11.60;94.00;;;;;;21072106;28;20036;-52
2022/02/18 13:55:57;;;;;;;34.88;19.30;;;11.20;95.50;;;;;;21070650;28;20078;-51
2022/02/18 14:06:12;;;;;;;30.10;17.52;;;10.50;96.30;;;;;;21068903;28;20093;-48
2022/02/18 14:16:16;;;;;;;31.00;18.73;;;10.10;96.70;;;;;;21068672;28;20053;-52
2022/02/18 14:26:20;;;;;;;31.02;17.67;;;9.40;98.90;;;;;;21067895;28;20081;-48
2022/02/18 14:36:41;;;;;;;41.03;22.60;;;9.00;99.10;;;;;;21068637;28;20040;-49
2022/02/18 14:46:55;;;;;;;47.15;22.77;;;8.20;99.90;;;;;;21067207;28;20036;-48
2022/02/18 14:56:57;;;;;;;42.53;23.98;;;7.20;99.90;;;;;;21066410;28;20043;-50
2022/02/18 15:07:00;;;;;;;40.75;22.33;;;6.40;99.90;;;;;;21065875;28;20040;-50
2022/02/18 15:17:05;;;;;;;39.33;22.13;;;5.80;99.90;;;;;;21066318;28;20044;-49
2022/02/18 15:27:09;;;;;;;44.17;19.88;;;5.30;99.90;;;;;;21082121;28;20089;-49
2022/02/18 15:37:11;;;;;;;55.75;22.10;;;4.90;99.90;;;;;;21081087;28;20032;-51
2022/02/18 15:47:19;;;;;;;43.55;22.33;;;4.50;99.90;;;;;;21079585;28;20101;-49
2022/02/18 15:57:23;;;;;;;91.57;24.10;;;4.20;99.90;;;;;;21079429;28;20097;-49
2022/02/18 16:07:26;;;;;;;41.75;20.48;;;4.00;99.90;;;;;;21078557;28;20105;-49
2022/02/18 16:17:29;;;;;;;43.70;21.48;;;3.70;99.90;;;;;;21077647;28;20032;-48
2022/02/18 16:27:33;;;;;;;40.30;20.85;;;3.50;99.90;;;;;;21076783;28;20039;-48
2022/02/18 16:37:38;;;;;;;44.00;22.55;;;3.20;99.90;;;;;;21074733;28;20039;-49
2022/02/18 16:47:41;;;;;;;55.00;25.85;;;3.00;99.90;;;;;;21074836;28;20040;-48
2022/02/18 16:57:43;;;;;;;47.75;23.77;;;3.00;99.90;;;;;;21074417;28;20061;-52
2022/02/18 17:07:46;;;;;;;49.92;25.00;;;2.90;99.90;;;;;;21073716;28;20036;-49
2022/02/18 17:17:50;;;;;;;85.13;26.52;;;2.80;99.90;;;;;;21073201;28;20144;-48
2022/02/18 17:27:54;;;;;;;83.97;27.88;;;2.60;99.90;;;;;;21072016;28;20032;-49
2022/02/18 17:38:00;;;;;;;48.97;25.25;;;2.60;99.90;;;;;;21071202;28;20040;-50
2022/02/18 17:48:03;;;;;;;59.95;29.10;;;2.50;99.90;;;;;;21069798;28;20085;-52
2022/02/18 17:58:06;;;;;;;52.55;24.38;;;2.50;99.90;;;;;;21053604;28;20089;-48
2022/02/18 18:08:09;;;;;;;56.83;26.85;;;2.50;99.90;;;;;;21069287;28;20093;-50
2022/02/18 18:18:13;;;;;;;73.07;34.60;;;2.60;99.90;;;;;;21036297;28;20036;-50
2022/02/18 18:28:15;;;;;;;11.60;5.97;;;2.50;99.90;;;;;;21067623;28;20040;-48
2022/02/18 18:38:20;;;;;;;18.48;9.82;;;2.70;99.90;;;;;;21067245;28;20062;-51
2022/02/18 18:48:25;;;;;;;20.48;10.85;;;3.80;99.90;;;;;;21066746;28;20039;-51
2022/02/18 18:58:29;;;;;;;44.33;21.55;;;4.00;99.90;;;;;;21065200;28;20040;-47
2022/02/18 19:08:32;;;;;;;46.03;21.63;;;3.40;99.90;;;;;;21065954;28;20487;-48
2022/02/18 19:18:35;;;;;;;56.83;24.52;;;3.00;99.90;;;;;;21048572;28;20089;-47
2022/02/18 19:28:38;;;;;;;5.50;3.63;;;3.00;99.90;;;;;;21064769;28;20040;-48
2022/02/18 19:38:41;;;;;;;5.53;3.55;;;4.30;99.90;;;;;;21066012;28;20036;-49
2022/02/18 19:48:44;;;;;;;8.98;6.45;;;4.40;99.90;;;;;;21063956;28;20549;-48
2022/02/18 19:59:07;;;;;;;7.32;5.85;;;4.70;99.90;;;;;;21064070;28;20160;-47
2022/02/18 20:09:10;;;;;;;5.60;3.80;;;4.90;99.90;;;;;;20963555;28;20044;-47
2022/02/18 20:19:13;;;;;;;5.70;3.90;;;5.10;99.90;;;;;;20968196;28;20048;-47
2022/02/18 20:29:16;;;;;;;4.80;3.95;;;5.20;99.90;;;;;;20967456;28;20067;-46
2022/02/18 20:39:19;;;;;;;2.95;2.20;;;4.80;99.90;;;;;;21041412;28;20117;-47
2022/02/18 20:49:23;;;;;;;3.25;2.20;;;5.10;99.90;;;;;;21074937;28;20487;-48
2022/02/18 20:59:25;;;;;;;2.75;1.50;;;5.30;99.90;;;;;;21074603;28;20409;-47
2022/02/18 21:09:28;;;;;;;1.10;0.70;;;5.40;99.90;;;;;;21073561;28;20028;-48
2022/02/18 21:19:32;;;;;;;4.57;1.63;;;5.10;99.90;;;;;;21071949;28;20379;-47
2022/02/18 21:29:35;;;;;;;3.90;2.15;;;5.20;99.90;;;;;;21072206;28;20040;-49
2022/02/18 21:39:37;;;;;;;4.45;2.08;;;5.20;99.90;;;;;;21070890;28;20113;-47
2022/02/18 21:49:40;;;;;;;2.90;1.60;;;5.00;99.90;;;;;;21070109;28;20560;-47
2022/02/18 21:59:42;;;;;;;3.20;1.90;;;5.00;99.90;;;;;;21069974;28;20379;-47
2022/02/18 22:09:45;;;;;;;2.83;1.48;;;5.00;99.90;;;;;;21069334;28;20036;-48
2022/02/18 22:19:49;;;;;;;2.30;1.75;;;5.20;99.90;;;;;;21068184;28;20040;-48
2022/02/18 22:29:51;;;;;;;3.50;1.65;;;5.20;99.90;;;;;;21067656;28;20447;-47
2022/02/18 22:39:53;;;;;;;2.95;2.00;;;5.40;99.90;;;;;;21067435;28;20032;-49
2022/02/18 22:49:56;;;;;;;2.85;1.90;;;5.50;99.90;;;;;;21067198;28;20568;-47
2022/02/18 23:00:00;;;;;;;3.70;1.70;;;5.60;99.90;;;;;;21049688;28;20093;-48
2022/02/18 23:10:03;;;;;;;2.00;1.02;;;5.30;99.90;;;;;;21065765;28;20085;-48
2022/02/18 23:20:07;;;;;;;2.58;1.27;;;5.10;99.90;;;;;;21065352;28;20032;-47
2022/02/18 23:30:11;;;;;;;3.08;1.15;;;5.40;99.90;;;;;;21065097;28;20040;-49
2022/02/18 23:40:18;;;;;;;2.45;1.45;;;5.20;99.90;;;;;;21068985;28;20036;-47
2022/02/18 23:50:21;;;;;;;2.20;1.50;;;4.80;99.90;;;;;;21080200;28;20422;-48
